createdAt,value
2019-02-16T00:02:04.079Z,9.77
2019-02-16T00:04:35.806Z,11.70
2019-02-16T00:07:07.261Z,9.80
2019-02-16T00:09:38.899Z,13.50
2019-02-16T00:12:10.562Z,15.63
2019-02-16T00:14:42.128Z,10.40
2019-02-16T00:17:13.613Z,14.13
2019-02-16T00:19:45.260Z,10.07
2019-02-16T00:22:16.764Z,15.60
2019-02-16T00:24:48.274Z,10.80
2019-02-16T00:27:19.798Z,10.53
2019-02-16T00:29:51.348Z,9.23
2019-02-16T00:32:22.998Z,9.50
2019-02-16T00:34:55.146Z,9.10
2019-02-16T00:37:26.576Z,11.20
2019-02-16T00:39:58.073Z,9.33
2019-02-16T00:42:29.552Z,16.83
2019-02-16T00:45:01.011Z,9.90
2019-02-16T00:47:32.579Z,8.10
2019-02-16T00:50:04.185Z,11.37
2019-02-16T00:52:35.671Z,9.17
2019-02-16T00:55:07.151Z,10.07
2019-02-16T00:57:40.864Z,10.07
2019-02-16T01:00:13.040Z,9.00
2019-02-16T01:02:44.802Z,8.50
2019-02-16T01:05:20.367Z,8.73
2019-02-16T01:07:52.048Z,9.93
2019-02-16T01:10:23.582Z,12.50
2019-02-16T01:12:55.082Z,11.17
2019-02-16T01:15:29.456Z,10.50
2019-02-16T01:18:03.335Z,10.43
2019-02-16T01:20:34.814Z,10.10
2019-02-16T01:23:06.269Z,9.67
2019-02-16T01:25:37.737Z,8.40
2019-02-16T01:28:10.862Z,7.93
2019-02-16T01:30:42.364Z,8.90
2019-02-16T01:33:14.591Z,10.60
2019-02-16T01:35:46.178Z,11.27
2019-02-16T01:38:20.000Z,10.20
2019-02-16T01:40:51.729Z,8.40
2019-02-16T01:43:23.241Z,8.80
2019-02-16T01:45:54.899Z,13.87
2019-02-16T01:48:26.416Z,9.13
2019-02-16T01:50:57.936Z,9.03
2019-02-16T01:53:29.479Z,9.20
2019-02-16T01:56:01.146Z,10.50
2019-02-16T01:58:32.711Z,10.20
2019-02-16T02:01:04.368Z,8.87
2019-02-16T02:03:35.905Z,9.60
2019-02-16T02:06:09.781Z,13.40
2019-02-16T02:08:42.479Z,9.10
2019-02-16T02:11:13.982Z,12.10
2019-02-16T02:13:45.487Z,7.37
2019-02-16T02:16:17.003Z,11.10
2019-02-16T02:18:48.491Z,12.23
2019-02-16T02:21:20.035Z,7.87
2019-02-16T02:23:51.511Z,7.50
2019-02-16T02:26:23.121Z,9.93
2019-02-16T02:28:56.835Z,10.20
2019-02-16T02:31:49.470Z,8.20
2019-02-16T02:34:21.550Z,8.83
2019-02-16T02:36:56.676Z,8.53
2019-02-16T02:39:28.394Z,7.50
2019-02-16T02:42:03.207Z,9.00
2019-02-16T02:44:35.088Z,10.57
2019-02-16T02:47:06.685Z,10.23
2019-02-16T02:49:38.501Z,8.80
2019-02-16T02:52:10.108Z,10.20
2019-02-16T02:54:41.735Z,7.40
2019-02-16T02:57:13.310Z,9.27
2019-02-16T02:59:44.803Z,6.93
2019-02-16T03:02:16.344Z,7.57
2019-02-16T03:04:48.778Z,8.03
2019-02-16T03:07:20.335Z,6.77
2019-02-16T03:09:51.811Z,8.87
2019-02-16T03:12:23.298Z,6.90
2019-02-16T03:14:55.816Z,8.33
2019-02-16T03:17:27.307Z,9.97
2019-02-16T03:19:58.748Z,7.07
2019-02-16T03:23:26.384Z,10.20
2019-02-16T03:26:38.561Z,7.80
2019-02-16T03:29:54.969Z,8.23
2019-02-16T03:32:56.111Z,8.23
2019-02-16T03:36:22.211Z,8.87
2019-02-16T03:39:25.598Z,8.07
2019-02-16T03:41:57.084Z,8.30
2019-02-16T03:44:28.613Z,7.47
2019-02-16T03:47:00.075Z,6.83
2019-02-16T03:49:31.554Z,8.73
2019-02-16T03:52:12.901Z,8.07
2019-02-16T03:54:36.343Z,6.40
2019-02-16T03:57:26.915Z,9.73
2019-02-16T03:59:58.515Z,7.23
2019-02-16T04:02:30.100Z,8.27
2019-02-16T04:05:01.396Z,7.80
2019-02-16T04:07:33.122Z,7.87
2019-02-16T04:10:06.646Z,6.97
2019-02-16T04:12:38.248Z,6.93
2019-02-16T04:15:09.902Z,9.90
2019-02-16T04:17:41.382Z,7.80
2019-02-16T04:20:13.197Z,9.83
2019-02-16T04:22:44.730Z,7.63
2019-02-16T04:25:16.201Z,7.03
2019-02-16T04:27:47.628Z,14.50
2019-02-16T04:30:24.982Z,7.43
2019-02-16T04:32:56.425Z,8.87
2019-02-16T04:35:27.961Z,5.67
2019-02-16T04:37:59.431Z,7.23
2019-02-16T04:40:30.985Z,10.27
2019-02-16T04:43:21.774Z,6.93
2019-02-16T04:45:53.278Z,11.73
2019-02-16T04:48:24.730Z,8.80
2019-02-16T04:50:56.329Z,8.87
2019-02-16T04:53:27.767Z,8.40
2019-02-16T04:55:59.383Z,6.20
2019-02-16T04:58:30.945Z,7.67
2019-02-16T05:01:02.426Z,7.07
2019-02-16T05:03:34.001Z,8.10
2019-02-16T05:06:05.584Z,9.70
2019-02-16T05:08:37.071Z,6.67
2019-02-16T05:11:10.804Z,11.30
2019-02-16T05:13:42.292Z,6.93
2019-02-16T05:16:13.742Z,8.70
2019-02-16T05:18:45.199Z,9.73
2019-02-16T05:21:16.653Z,9.00
2019-02-16T05:23:48.107Z,11.00
2019-02-16T05:26:19.583Z,11.60
2019-02-16T05:28:51.691Z,10.87
2019-02-16T05:31:23.115Z,7.83
2019-02-16T05:33:54.569Z,8.17
2019-02-16T05:36:26.032Z,7.47
2019-02-16T05:38:57.614Z,8.23
2019-02-16T05:41:29.102Z,7.13
2019-02-16T05:44:00.539Z,7.87
2019-02-16T05:46:31.992Z,13.17
2019-02-16T05:49:03.549Z,12.63
2019-02-16T05:51:35.023Z,9.60
2019-02-16T05:54:06.703Z,10.80
2019-02-16T05:56:38.306Z,7.37
2019-02-16T05:59:09.933Z,7.77
2019-02-16T06:01:41.448Z,8.93
2019-02-16T06:04:13.000Z,9.80
2019-02-16T06:06:44.543Z,10.23
2019-02-16T06:09:16.051Z,11.33
2019-02-16T06:11:47.506Z,10.17
2019-02-16T06:14:19.218Z,10.37
2019-02-16T06:16:50.726Z,7.40
2019-02-16T06:19:22.719Z,8.70
2019-02-16T06:21:54.178Z,8.17
2019-02-16T06:24:25.877Z,18.33
2019-02-16T06:26:57.346Z,11.23
2019-02-16T06:29:28.838Z,12.40
2019-02-16T06:32:00.310Z,15.20
2019-02-16T06:34:32.404Z,9.50
2019-02-16T06:37:20.279Z,6.83
2019-02-16T06:39:52.288Z,10.17
2019-02-16T06:42:23.881Z,7.23
2019-02-16T06:44:55.418Z,8.47
2019-02-16T06:47:26.868Z,12.97
2019-02-16T06:49:58.350Z,7.40
2019-02-16T06:52:29.800Z,10.80
2019-02-16T06:55:01.350Z,12.30
2019-02-16T06:57:33.218Z,10.10
2019-02-16T07:00:05.939Z,10.37
2019-02-16T07:02:37.384Z,18.43
2019-02-16T07:05:08.988Z,10.07
2019-02-16T07:07:40.473Z,8.80
2019-02-16T07:10:11.960Z,8.93
2019-02-16T07:12:43.400Z,14.40
2019-02-16T07:15:14.873Z,12.97
2019-02-16T07:17:52.833Z,11.87
2019-02-16T07:20:25.030Z,12.53
2019-02-16T07:22:57.584Z,11.77
2019-02-16T07:25:29.090Z,8.80
2019-02-16T07:28:00.547Z,13.87
2019-02-16T07:30:32.112Z,19.03
2019-02-16T07:33:03.838Z,11.37
2019-02-16T07:35:36.405Z,10.30
2019-02-16T07:38:07.863Z,12.87
2019-02-16T07:40:39.482Z,11.37
2019-02-16T07:43:29.886Z,15.80
2019-02-16T07:46:16.650Z,13.63
2019-02-16T07:49:00.727Z,12.17
2019-02-16T07:51:51.206Z,14.97
2019-02-16T07:54:31.278Z,16.33
2019-02-16T07:57:25.371Z,11.90
2019-02-16T08:00:42.294Z,17.00
2019-02-16T08:03:19.076Z,11.83
2019-02-16T08:05:56.504Z,13.67
2019-02-16T08:08:46.954Z,10.63
2019-02-16T08:11:36.151Z,13.97
2019-02-16T08:14:28.583Z,20.30
2019-02-16T08:17:28.072Z,9.70
2019-02-16T08:20:18.561Z,13.53
2019-02-16T08:23:21.402Z,11.17
2019-02-16T08:26:17.861Z,19.10
2019-02-16T08:29:08.397Z,12.57
2019-02-16T08:31:50.255Z,15.07
2019-02-16T08:34:33.321Z,10.80
2019-02-16T08:37:21.974Z,14.70
2019-02-16T08:40:12.370Z,10.33
2019-02-16T08:42:55.974Z,14.23
2019-02-16T08:45:40.319Z,13.40
2019-02-16T08:48:36.857Z,13.10
2019-02-16T08:51:39.689Z,14.67
2019-02-16T08:54:21.536Z,19.43
2019-02-16T08:57:17.712Z,11.83
2019-02-16T09:00:17.167Z,10.43
2019-02-16T09:03:16.381Z,10.93
2019-02-16T09:05:56.241Z,12.60
2019-02-16T09:08:43.892Z,13.07
2019-02-16T09:11:33.078Z,13.00
2019-02-16T09:14:21.759Z,13.30
2019-02-16T09:17:10.991Z,11.80
2019-02-16T09:20:01.638Z,12.13
2019-02-16T09:22:58.295Z,14.10
2019-02-16T09:26:06.969Z,14.20
2019-02-16T09:28:46.680Z,14.93
2019-02-16T09:31:37.162Z,15.27
2019-02-16T09:34:26.615Z,15.20
2019-02-16T09:37:08.905Z,15.80
2019-02-16T09:39:50.931Z,14.23
2019-02-16T09:42:30.159Z,16.90
2019-02-16T09:45:18.477Z,14.87
2019-02-16T09:48:09.173Z,19.87
2019-02-16T09:50:48.163Z,14.40
2019-02-16T09:53:33.626Z,18.70
2019-02-16T09:56:33.280Z,13.60
2019-02-16T09:59:23.095Z,15.67
2019-02-16T10:02:16.439Z,14.67
2019-02-16T10:05:17.662Z,15.57
2019-02-16T10:08:14.404Z,17.70
2019-02-16T10:11:06.437Z,18.17
2019-02-16T10:13:56.887Z,15.57
2019-02-16T10:16:53.655Z,18.50
2019-02-16T10:19:34.787Z,17.13
2019-02-16T10:22:14.737Z,24.47
2019-02-16T10:24:53.977Z,23.67
2019-02-16T10:27:39.131Z,18.10
2019-02-16T10:30:28.634Z,21.83
2019-02-16T10:33:25.283Z,17.83
2019-02-16T10:36:03.877Z,24.40
2019-02-16T10:38:51.040Z,21.10
2019-02-16T10:41:41.445Z,25.43
2019-02-16T10:44:50.265Z,19.43
2019-02-16T10:47:49.981Z,16.93
2019-02-16T10:50:35.799Z,20.60
2019-02-16T10:53:32.243Z,17.80
2019-02-16T10:56:34.849Z,23.50
2019-02-16T10:59:28.461Z,21.13
2019-02-16T11:02:11.914Z,19.60
2019-02-16T11:05:17.105Z,18.50
2019-02-16T11:08:22.915Z,21.20
2019-02-16T11:11:11.847Z,22.67
2019-02-16T11:13:56.141Z,21.97
2019-02-16T11:16:46.501Z,23.03
2019-02-16T11:19:42.723Z,21.50
2019-02-16T11:22:36.172Z,19.00
2019-02-16T11:25:29.532Z,21.27
2019-02-16T11:28:25.704Z,23.47
2019-02-16T11:31:18.996Z,22.97
2019-02-16T11:34:20.029Z,23.00
2019-02-16T11:37:11.560Z,30.17
2019-02-16T11:39:52.993Z,22.97
2019-02-16T11:42:43.904Z,22.10
2019-02-16T11:45:37.304Z,24.83
2019-02-16T11:48:26.681Z,25.27
2019-02-16T11:51:27.743Z,19.50
2019-02-16T11:54:30.255Z,25.83
2019-02-16T11:57:13.828Z,22.30
2019-02-16T12:00:25.456Z,24.20
2019-02-16T12:03:06.230Z,24.80
2019-02-16T12:05:46.107Z,26.73
2019-02-16T12:08:45.767Z,24.00
2019-02-16T12:11:48.194Z,27.30
2019-02-16T12:14:37.470Z,24.37
2019-02-16T12:17:16.295Z,25.47
2019-02-16T12:20:15.397Z,30.83
2019-02-16T12:22:58.671Z,25.30
2019-02-16T12:25:57.239Z,25.00
2019-02-16T12:28:57.690Z,20.60
2019-02-16T12:31:54.028Z,22.80
2019-02-16T12:34:40.083Z,36.83
2019-02-16T12:37:29.430Z,22.03
2019-02-16T12:40:15.350Z,25.13
2019-02-16T12:43:02.222Z,24.27
2019-02-16T12:45:50.913Z,22.80
2019-02-16T12:48:22.963Z,21.57
2019-02-16T12:51:13.492Z,24.10
2019-02-16T12:54:04.267Z,29.00
2019-02-16T12:56:43.979Z,28.80
2019-02-16T12:59:37.637Z,23.47
2019-02-16T13:02:17.315Z,20.20
2019-02-16T13:05:10.899Z,22.90
2019-02-16T13:07:59.257Z,22.63
2019-02-16T13:10:46.656Z,24.63
2019-02-16T13:13:35.946Z,21.97
2019-02-16T13:16:26.407Z,23.10
2019-02-16T13:19:16.849Z,24.17
2019-02-16T13:23:08.718Z,26.20
2019-02-16T13:26:41.048Z,25.90
2019-02-16T13:30:14.726Z,22.40
2019-02-16T13:33:13.149Z,22.07
2019-02-16T13:36:14.272Z,21.33
2019-02-16T13:39:35.581Z,25.10
2019-02-16T13:42:21.245Z,19.47
2019-02-16T13:45:14.737Z,25.37
2019-02-16T13:48:09.291Z,18.30
2019-02-16T13:50:57.167Z,20.73
2019-02-16T13:53:53.165Z,19.67
2019-02-16T13:56:59.119Z,19.17
2019-02-16T13:59:52.620Z,20.97
2019-02-16T14:02:42.740Z,25.90
2019-02-16T14:05:25.741Z,20.27
2019-02-16T14:08:28.308Z,18.03
2019-02-16T14:11:27.640Z,21.20
2019-02-16T14:15:17.608Z,19.70
2019-02-16T14:17:49.161Z,24.33
2019-02-16T14:20:20.708Z,20.07
2019-02-16T14:22:52.311Z,19.60
2019-02-16T14:25:29.193Z,17.90
2019-02-16T14:30:45.098Z,34.80
2019-02-16T14:33:25.195Z,20.70
2019-02-16T14:40:32.334Z,20.77
2019-02-16T14:43:33.767Z,22.97
2019-02-16T14:46:05.858Z,19.17
2019-02-16T14:48:37.708Z,24.30
2019-02-16T14:51:09.222Z,21.80
2019-02-16T14:53:40.897Z,21.30
2019-02-16T14:56:12.481Z,21.93
2019-02-16T14:58:43.961Z,21.47
2019-02-16T15:01:15.569Z,24.13
2019-02-16T15:03:47.098Z,24.63
2019-02-16T15:06:18.677Z,24.60
2019-02-16T15:08:50.290Z,21.77
2019-02-16T15:11:23.109Z,24.30
2019-02-16T15:13:54.795Z,24.27
2019-02-16T15:16:27.352Z,27.67
2019-02-16T15:18:58.977Z,27.73
2019-02-16T15:21:53.508Z,27.87
2019-02-16T15:24:25.197Z,19.80
2019-02-16T15:26:56.830Z,24.10
2019-02-16T15:29:28.475Z,19.37
2019-02-16T15:32:00.035Z,22.67
2019-02-16T15:34:35.600Z,27.30
2019-02-16T15:37:07.269Z,28.20
2019-02-16T15:39:38.988Z,25.13
2019-02-16T15:45:14.142Z,28.37
2019-02-16T15:47:46.118Z,23.43
2019-02-16T15:50:17.712Z,23.00
2019-02-16T15:52:49.407Z,21.97
2019-02-16T15:55:25.843Z,28.50
2019-02-16T15:57:54.448Z,27.07
2019-02-16T16:00:27.759Z,23.83
2019-02-16T16:02:59.766Z,26.00
2019-02-16T16:05:46.497Z,24.40
2019-02-16T16:08:36.305Z,23.00
2019-02-16T16:11:32.028Z,25.33
2019-02-16T16:14:25.409Z,25.47
2019-02-16T16:17:22.318Z,26.00
2019-02-16T16:20:30.425Z,25.10
2019-02-16T16:23:47.101Z,25.17
2019-02-16T16:27:02.172Z,30.50
2019-02-16T16:30:02.076Z,28.40
2019-02-16T16:36:44.137Z,33.40
2019-02-16T16:39:37.148Z,29.03
2019-02-16T16:42:39.165Z,29.53
2019-02-16T16:45:21.966Z,24.60
2019-02-16T16:48:19.081Z,26.73
2019-02-16T16:51:16.046Z,29.53
2019-02-16T16:54:24.337Z,28.53
2019-02-16T16:57:01.335Z,25.40
2019-02-16T16:59:41.803Z,25.60
2019-02-16T17:02:50.458Z,28.90
2019-02-16T17:05:43.686Z,32.60
2019-02-16T17:08:37.084Z,26.60
2019-02-16T17:11:26.574Z,26.27
2019-02-16T17:14:26.458Z,27.47
2019-02-16T17:17:22.941Z,34.70
2019-02-16T17:20:34.270Z,26.90
2019-02-16T17:23:24.669Z,24.47
2019-02-16T17:26:19.297Z,29.07
2019-02-16T17:29:21.974Z,24.50
2019-02-16T17:32:30.980Z,26.83
2019-02-16T17:35:23.897Z,30.67
2019-02-16T17:38:17.130Z,26.57
2019-02-16T17:41:05.180Z,28.13
2019-02-16T17:44:03.010Z,40.00
2019-02-16T17:47:08.582Z,24.03
2019-02-16T17:49:53.480Z,31.23
2019-02-16T17:52:43.888Z,26.70
2019-02-16T17:55:33.270Z,28.73
2019-02-16T17:58:22.660Z,30.83
2019-02-16T18:01:10.776Z,26.73
2019-02-16T18:04:04.380Z,28.17
2019-02-16T18:06:54.532Z,23.53
2019-02-16T18:10:00.367Z,29.03
2019-02-16T18:12:53.577Z,30.47
2019-02-16T18:15:46.934Z,31.07
2019-02-16T18:18:40.612Z,41.27
2019-02-16T18:21:31.306Z,27.30
2019-02-16T18:24:21.724Z,27.17
2019-02-16T18:27:18.082Z,30.70
2019-02-16T18:30:11.395Z,34.23
2019-02-16T18:32:53.464Z,28.43
2019-02-16T18:35:49.886Z,29.37
2019-02-16T18:38:49.507Z,28.20
2019-02-16T18:41:28.008Z,30.40
2019-02-16T18:44:30.243Z,29.40
2019-02-16T18:47:14.676Z,31.80
2019-02-16T18:50:07.894Z,31.10
2019-02-16T18:52:58.076Z,37.80
2019-02-16T18:55:57.567Z,29.23
2019-02-16T18:58:46.837Z,28.40
2019-02-16T19:01:40.384Z,28.00
2019-02-16T19:04:29.755Z,33.40
2019-02-16T19:07:26.430Z,30.10
2019-02-16T19:10:05.669Z,31.40
2019-02-16T19:13:14.954Z,32.60
2019-02-16T19:15:58.570Z,30.20
2019-02-16T19:18:49.043Z,29.03
2019-02-16T19:21:39.755Z,32.40
2019-02-16T19:24:21.375Z,32.60
2019-02-16T19:27:16.660Z,24.33
2019-02-16T19:30:13.783Z,30.57
2019-02-16T19:33:04.399Z,29.50
2019-02-16T19:35:55.374Z,37.17
2019-02-16T19:38:44.686Z,32.93
2019-02-16T19:41:26.165Z,29.73
2019-02-16T19:44:19.843Z,30.33
2019-02-16T19:47:28.547Z,33.00
2019-02-16T19:50:24.146Z,37.20
2019-02-16T19:53:13.511Z,34.10
2019-02-16T19:56:19.605Z,32.53
2019-02-16T19:59:08.892Z,30.47
2019-02-16T20:02:17.668Z,35.57
2019-02-16T20:05:08.281Z,35.27
2019-02-16T20:08:04.690Z,33.43
2019-02-16T20:10:47.474Z,26.33
2019-02-16T20:13:33.871Z,28.53
2019-02-16T20:16:35.079Z,31.93
2019-02-16T20:19:34.905Z,29.33
2019-02-16T20:22:18.312Z,30.57
2019-02-16T20:25:08.735Z,31.80
2019-02-16T20:28:10.964Z,31.93
2019-02-16T20:30:56.355Z,24.87
2019-02-16T20:33:37.028Z,28.17
2019-02-16T20:36:20.494Z,29.93
2019-02-16T20:39:15.080Z,28.17
2019-02-16T20:41:59.745Z,35.07
2019-02-16T20:44:48.997Z,36.73
2019-02-16T20:47:43.198Z,39.00
2019-02-16T20:50:53.051Z,39.23
2019-02-16T20:53:48.895Z,40.10
2019-02-16T20:56:39.537Z,33.33
2019-02-16T20:59:30.108Z,35.60
2019-02-16T21:02:20.565Z,32.50
2019-02-16T21:05:12.577Z,42.07
2019-02-16T21:08:05.753Z,32.83
2019-02-16T21:10:56.737Z,31.47
2019-02-16T21:13:47.221Z,36.60
2019-02-16T21:16:35.773Z,34.47
2019-02-16T21:19:49.978Z,45.93
2019-02-16T21:22:30.850Z,35.57
2019-02-16T21:25:25.702Z,38.47
2019-02-16T21:28:08.470Z,34.90
2019-02-16T21:30:55.873Z,34.60
2019-02-16T21:33:37.849Z,31.67
2019-02-16T21:36:31.490Z,33.53
2019-02-16T21:39:41.005Z,33.83
2019-02-16T21:42:53.931Z,34.90
2019-02-16T21:45:43.506Z,36.83
2019-02-16T21:48:38.681Z,35.90
2019-02-16T21:51:30.913Z,32.70
2019-02-16T21:54:14.665Z,31.17
2019-02-16T21:57:22.320Z,36.33
2019-02-16T22:00:12.833Z,37.90
2019-02-16T22:02:53.877Z,37.57
2019-02-16T22:06:01.952Z,31.37
2019-02-16T22:08:40.154Z,34.60
2019-02-16T22:11:28.381Z,32.40
2019-02-16T22:14:03.526Z,31.97
2019-02-16T22:16:35.414Z,36.03
2019-02-16T22:19:07.107Z,31.97
2019-02-16T22:21:38.863Z,30.80
2019-02-16T22:24:10.446Z,35.00
2019-02-16T22:26:42.475Z,38.23
2019-02-16T22:29:14.736Z,42.50
2019-02-16T22:31:46.600Z,34.47
2019-02-16T22:34:18.535Z,32.37
2019-02-16T22:36:50.216Z,32.10
2019-02-16T22:39:21.846Z,33.07
2019-02-16T22:41:53.539Z,33.90
2019-02-16T22:44:25.245Z,30.50
2019-02-16T22:46:56.798Z,33.53
2019-02-16T22:49:28.447Z,31.30
2019-02-16T22:52:01.155Z,35.50
2019-02-16T22:54:35.717Z,33.50
2019-02-16T22:57:07.200Z,35.37
2019-02-16T22:59:41.783Z,31.73
2019-02-16T23:02:14.700Z,31.47
2019-02-16T23:04:46.295Z,30.80
2019-02-16T23:07:17.834Z,32.23
2019-02-16T23:09:51.111Z,34.03
2019-02-16T23:12:22.977Z,35.90
2019-02-16T23:14:54.703Z,29.93
2019-02-16T23:17:26.623Z,31.07
2019-02-16T23:19:58.748Z,29.87
2019-02-16T23:22:30.375Z,31.70
2019-02-16T23:25:01.935Z,32.57
2019-02-16T23:27:33.988Z,36.33
2019-02-16T23:30:07.856Z,31.00
2019-02-16T23:32:39.381Z,32.33
2019-02-16T23:35:11.116Z,31.30
2019-02-16T23:37:43.022Z,33.97
2019-02-16T23:40:14.501Z,35.63
2019-02-16T23:42:46.048Z,31.60
2019-02-16T23:45:17.576Z,32.10
2019-02-16T23:47:52.287Z,28.93
2019-02-16T23:50:23.757Z,36.60
2019-02-16T23:52:55.313Z,33.40
2019-02-16T23:55:26.805Z,37.23
2019-02-16T23:58:00.455Z,30.70
